createdAt,value
2023-05-07T00:00:35.499Z,13.60
2023-05-07T00:03:04.231Z,13.70
2023-05-07T00:05:33.110Z,13.80
2023-05-07T00:08:03.486Z,13.80
2023-05-07T00:10:32.128Z,13.80
2023-05-07T00:13:01.700Z,13.80
2023-05-07T00:15:30.618Z,13.80
2023-05-07T00:18:00.511Z,13.80
2023-05-07T00:20:29.377Z,13.70
2023-05-07T00:22:58.130Z,13.70
2023-05-07T00:25:28.419Z,13.70
2023-05-07T00:27:57.148Z,13.70
2023-05-07T00:30:25.934Z,13.70
2023-05-07T00:32:54.761Z,13.70
2023-05-07T00:35:23.820Z,13.70
2023-05-07T00:37:52.649Z,13.70
2023-05-07T00:40:21.700Z,13.70
2023-05-07T00:42:54.049Z,13.70
2023-05-07T00:45:23.103Z,13.70
2023-05-07T00:47:54.829Z,13.70
2023-05-07T00:50:24.558Z,13.70
2023-05-07T00:52:54.172Z,13.60
2023-05-07T00:55:24.703Z,13.60
2023-05-07T00:57:56.041Z,13.70
2023-05-07T01:00:26.314Z,13.70
2023-05-07T01:02:55.812Z,13.60
2023-05-07T01:05:27.151Z,13.60
2023-05-07T01:07:57.469Z,13.60
2023-05-07T01:10:26.883Z,13.60
2023-05-07T01:12:57.148Z,13.60
2023-05-07T01:15:26.037Z,13.50
2023-05-07T01:17:54.915Z,13.50
2023-05-07T01:20:30.879Z,13.50
2023-05-07T01:23:03.115Z,13.60
2023-05-07T01:25:32.268Z,13.50
2023-05-07T01:28:03.589Z,13.40
2023-05-07T01:30:38.356Z,13.40
2023-05-07T01:33:13.473Z,13.40
2023-05-07T01:35:46.287Z,13.40
2023-05-07T01:38:17.346Z,13.40
2023-05-07T01:40:46.639Z,13.30
2023-05-07T01:43:16.102Z,13.30
2023-05-07T01:45:47.123Z,13.30
2023-05-07T01:48:17.800Z,13.30
2023-05-07T01:50:47.556Z,13.40
2023-05-07T01:53:18.628Z,13.50
2023-05-07T01:55:48.023Z,13.50
2023-05-07T01:58:18.612Z,13.50
2023-05-07T02:00:47.757Z,13.50
2023-05-07T02:03:16.878Z,13.60
2023-05-07T02:05:57.630Z,13.60
2023-05-07T02:08:38.117Z,13.60
2023-05-07T02:11:07.416Z,13.60
2023-05-07T02:13:37.691Z,13.50
2023-05-07T02:16:07.856Z,13.50
2023-05-07T02:18:36.894Z,13.50
2023-05-07T02:21:06.366Z,13.50
2023-05-07T02:23:37.307Z,13.50
2023-05-07T02:26:06.817Z,13.40
2023-05-07T02:28:36.518Z,13.40
2023-05-07T02:31:07.294Z,13.40
2023-05-07T02:33:37.699Z,13.40
2023-05-07T02:36:10.632Z,13.30
2023-05-07T02:38:47.516Z,13.30
2023-05-07T02:41:16.206Z,13.40
2023-05-07T02:43:44.939Z,13.40
2023-05-07T02:46:14.333Z,13.30
2023-05-07T02:48:48.273Z,13.30
2023-05-07T02:51:17.098Z,13.20
2023-05-07T02:53:47.444Z,13.20
2023-05-07T02:56:16.106Z,13.20
2023-05-07T02:58:44.868Z,13.10
2023-05-07T03:01:15.131Z,13.10
2023-05-07T03:03:51.606Z,13.00
2023-05-07T03:06:20.592Z,12.90
2023-05-07T03:08:50.842Z,12.90
2023-05-07T03:11:19.716Z,12.80
2023-05-07T03:13:50.177Z,12.80
2023-05-07T03:16:21.176Z,12.80
2023-05-07T03:18:49.914Z,12.80
2023-05-07T03:21:18.816Z,12.80
2023-05-07T03:23:47.683Z,12.80
2023-05-07T03:26:17.849Z,12.70
2023-05-07T03:28:47.408Z,12.60
2023-05-07T03:31:18.834Z,12.50
2023-05-07T03:33:54.312Z,12.50
2023-05-07T03:36:23.575Z,12.30
2023-05-07T03:38:53.015Z,12.30
2023-05-07T03:41:26.844Z,12.20
2023-05-07T03:43:55.927Z,12.20
2023-05-07T03:46:27.288Z,12.10
2023-05-07T03:48:56.544Z,12.10
2023-05-07T03:51:25.281Z,12.00
2023-05-07T03:53:54.910Z,12.00
2023-05-07T03:56:27.858Z,12.00
2023-05-07T03:58:58.701Z,11.90
2023-05-07T04:01:27.842Z,11.90
2023-05-07T04:03:57.136Z,11.90
2023-05-07T04:06:27.051Z,11.90
2023-05-07T04:08:55.798Z,12.00
2023-05-07T04:11:26.242Z,12.10
2023-05-07T04:13:55.193Z,12.20
2023-05-07T04:16:25.921Z,12.30
2023-05-07T04:18:56.011Z,12.40
2023-05-07T04:21:24.959Z,12.50
2023-05-07T04:23:54.490Z,12.60
2023-05-07T04:26:24.409Z,12.70
2023-05-07T04:28:54.734Z,12.80
2023-05-07T04:31:23.556Z,12.90
2023-05-07T04:33:55.101Z,13.00
2023-05-07T04:36:24.131Z,13.20
2023-05-07T04:38:59.892Z,13.20
2023-05-07T04:41:29.521Z,13.30
2023-05-07T04:44:00.831Z,13.40
2023-05-07T04:46:32.776Z,13.50
2023-05-07T04:49:01.901Z,13.60
2023-05-07T04:51:30.801Z,13.70
2023-05-07T04:53:59.554Z,14.00
2023-05-07T04:56:31.411Z,14.20
2023-05-07T04:59:03.388Z,14.50
2023-05-07T05:01:33.290Z,14.80
2023-05-07T05:04:02.599Z,15.30
2023-05-07T05:06:31.774Z,15.90
2023-05-07T05:09:01.191Z,16.50
2023-05-07T05:11:32.069Z,17.20
2023-05-07T05:14:03.397Z,17.70
2023-05-07T05:16:32.131Z,18.00
2023-05-07T05:19:01.787Z,18.10
2023-05-07T05:21:31.321Z,18.20
2023-05-07T05:24:06.236Z,18.20
2023-05-07T05:26:35.009Z,18.00
2023-05-07T05:29:05.836Z,17.80
2023-05-07T05:31:35.115Z,17.50
2023-05-07T05:34:04.799Z,17.20
2023-05-07T05:36:34.380Z,16.90
2023-05-07T05:39:03.910Z,16.60
2023-05-07T05:41:32.906Z,16.40
2023-05-07T05:44:02.224Z,16.20
2023-05-07T05:46:34.071Z,16.20
2023-05-07T05:49:04.324Z,16.30
2023-05-07T05:51:33.817Z,16.50
2023-05-07T05:54:02.603Z,16.60
2023-05-07T05:56:31.699Z,16.60
2023-05-07T05:59:00.638Z,16.60
2023-05-07T06:01:29.604Z,16.70
2023-05-07T06:04:02.297Z,16.70
2023-05-07T06:06:32.465Z,16.90
2023-05-07T06:09:01.937Z,17.00
2023-05-07T06:11:38.395Z,17.00
2023-05-07T06:14:08.342Z,17.00
2023-05-07T06:16:39.203Z,17.00
2023-05-07T06:19:11.307Z,17.10
2023-05-07T06:21:42.488Z,17.20
2023-05-07T06:24:11.632Z,17.20
2023-05-07T06:26:41.648Z,17.30
2023-05-07T06:29:10.881Z,17.30
2023-05-07T06:31:42.245Z,17.30
2023-05-07T06:34:16.356Z,17.50
2023-05-07T06:36:45.357Z,17.50
2023-05-07T06:39:23.209Z,17.60
2023-05-07T06:41:53.652Z,17.60
2023-05-07T06:44:27.688Z,17.50
2023-05-07T06:47:16.080Z,17.50
2023-05-07T06:49:49.084Z,17.50
2023-05-07T06:52:21.083Z,17.60
2023-05-07T06:54:52.416Z,17.60
2023-05-07T06:57:23.502Z,17.70
2023-05-07T06:59:52.370Z,17.90
2023-05-07T07:02:22.304Z,18.10
2023-05-07T07:04:53.688Z,18.30
2023-05-07T07:07:22.535Z,18.50
2023-05-07T07:09:52.645Z,18.40
2023-05-07T07:12:22.201Z,18.60
2023-05-07T07:14:51.155Z,18.90
2023-05-07T07:17:19.873Z,19.20
2023-05-07T07:19:48.515Z,19.40
2023-05-07T07:22:19.008Z,19.50
2023-05-07T07:24:47.780Z,19.60
2023-05-07T07:27:19.053Z,19.60
2023-05-07T07:29:47.717Z,19.60
2023-05-07T07:32:16.964Z,19.60
2023-05-07T07:34:46.133Z,19.80
2023-05-07T07:37:15.519Z,20.00
2023-05-07T07:39:46.299Z,20.20
2023-05-07T07:42:15.325Z,20.10
2023-05-07T07:44:44.074Z,20.00
2023-05-07T07:47:15.447Z,20.00
2023-05-07T07:49:45.854Z,20.10
2023-05-07T07:52:15.176Z,20.20
2023-05-07T07:54:47.386Z,20.20
2023-05-07T07:57:16.192Z,20.10
2023-05-07T07:59:45.184Z,20.10
2023-05-07T08:02:15.535Z,20.20
2023-05-07T08:04:45.104Z,20.30
2023-05-07T08:07:14.402Z,20.30
2023-05-07T08:09:47.403Z,20.30
2023-05-07T08:12:17.065Z,20.10
2023-05-07T08:14:46.218Z,20.00
2023-05-07T08:17:17.109Z,19.90
2023-05-07T08:19:46.863Z,20.00
2023-05-07T08:22:16.888Z,20.00
2023-05-07T08:24:47.735Z,20.10
2023-05-07T08:27:16.878Z,20.20
2023-05-07T08:29:48.638Z,20.30
2023-05-07T08:32:19.104Z,20.50
2023-05-07T08:34:48.017Z,20.50
2023-05-07T08:37:17.076Z,20.70
2023-05-07T08:39:48.200Z,21.00
2023-05-07T08:42:25.721Z,21.10
2023-05-07T08:44:56.801Z,21.50
2023-05-07T08:47:33.032Z,21.70
2023-05-07T08:50:04.007Z,21.80
2023-05-07T08:52:32.790Z,21.80
2023-05-07T08:55:05.365Z,21.80
2023-05-07T08:57:34.669Z,21.70
2023-05-07T09:00:04.123Z,21.60
2023-05-07T09:02:33.710Z,21.30
2023-05-07T09:05:02.551Z,21.20
2023-05-07T09:07:32.602Z,21.20
2023-05-07T09:10:06.077Z,21.30
2023-05-07T09:12:37.488Z,21.40
2023-05-07T09:15:09.565Z,21.50
2023-05-07T09:17:38.673Z,21.70
2023-05-07T09:21:24.619Z,21.60
2023-05-07T09:23:57.436Z,21.50
2023-05-07T09:26:35.061Z,21.40
2023-05-07T09:29:05.266Z,21.40
2023-05-07T09:31:34.050Z,21.50
2023-05-07T09:34:03.721Z,21.80
2023-05-07T09:36:34.980Z,22.30
2023-05-07T09:39:04.532Z,22.70
2023-05-07T09:41:35.367Z,22.90
2023-05-07T09:44:16.372Z,23.00
2023-05-07T09:46:55.905Z,22.90
2023-05-07T09:49:32.501Z,22.60
2023-05-07T09:52:10.230Z,22.50
2023-05-07T09:54:44.186Z,22.70
2023-05-07T09:57:15.929Z,22.90
2023-05-07T09:59:49.435Z,22.90
2023-05-07T10:02:22.379Z,23.00
2023-05-07T10:04:56.964Z,23.00
2023-05-07T10:07:32.217Z,23.20
2023-05-07T10:10:08.557Z,23.30
2023-05-07T10:12:43.605Z,23.40
2023-05-07T10:15:22.009Z,23.00
2023-05-07T10:17:57.014Z,22.60
2023-05-07T10:20:28.315Z,22.50
2023-05-07T10:22:59.468Z,22.60
2023-05-07T10:25:35.719Z,22.80
2023-05-07T10:28:14.522Z,23.10
2023-05-07T10:31:02.369Z,23.30
2023-05-07T10:33:38.839Z,23.70
2023-05-07T10:36:09.164Z,24.00
2023-05-07T10:38:39.566Z,24.10
2023-05-07T10:41:08.498Z,24.00
2023-05-07T10:43:44.247Z,24.10
2023-05-07T10:46:21.498Z,24.10
2023-05-07T10:49:09.680Z,24.20
2023-05-07T10:51:46.875Z,24.30
2023-05-07T10:54:26.029Z,24.40
2023-05-07T10:57:35.215Z,24.60
2023-05-07T11:00:45.767Z,24.50
2023-05-07T11:03:23.447Z,24.10
2023-05-07T11:06:14.282Z,23.80
2023-05-07T11:09:05.477Z,23.40
2023-05-07T11:11:53.666Z,23.30
2023-05-07T11:14:48.416Z,23.40
2023-05-07T11:17:35.729Z,23.40
2023-05-07T11:20:13.587Z,23.30
2023-05-07T11:22:50.091Z,23.50
2023-05-07T11:25:29.488Z,23.80
2023-05-07T11:28:11.609Z,24.20
2023-05-07T11:30:46.430Z,24.40
2023-05-07T11:33:21.807Z,24.40
2023-05-07T11:35:53.132Z,24.20
2023-05-07T11:38:25.164Z,24.00
2023-05-07T11:40:54.588Z,23.80
2023-05-07T11:43:23.227Z,23.40
2023-05-07T11:45:52.303Z,23.20
2023-05-07T11:48:24.567Z,23.00
2023-05-07T11:50:54.226Z,23.20
2023-05-07T11:53:23.177Z,23.30
2023-05-07T11:55:55.115Z,23.40
2023-05-07T11:58:25.062Z,23.40
2023-05-07T12:00:54.711Z,23.40
2023-05-07T12:03:25.170Z,23.40
2023-05-07T12:05:53.868Z,23.60
2023-05-07T12:08:23.701Z,24.10
2023-05-07T12:10:53.540Z,24.40
2023-05-07T12:13:23.981Z,24.50
2023-05-07T12:15:53.602Z,24.50
2023-05-07T12:18:23.080Z,24.50
2023-05-07T12:20:53.688Z,24.40
2023-05-07T12:23:24.488Z,24.30
2023-05-07T12:25:53.558Z,24.20
2023-05-07T12:28:22.472Z,23.80
2023-05-07T12:30:52.672Z,23.60
2023-05-07T12:33:25.771Z,23.40
2023-05-07T12:35:57.526Z,23.20
2023-05-07T12:38:26.257Z,23.10
2023-05-07T12:40:57.200Z,23.00
2023-05-07T12:43:28.393Z,23.00
2023-05-07T12:45:58.774Z,23.10
2023-05-07T12:48:28.286Z,23.20
2023-05-07T12:50:59.556Z,23.40
2023-05-07T12:53:30.445Z,23.60
2023-05-07T12:56:00.761Z,23.80
2023-05-07T12:58:31.208Z,23.80
2023-05-07T13:01:03.705Z,23.80
2023-05-07T13:03:34.268Z,23.40
2023-05-07T13:06:06.038Z,23.20
2023-05-07T13:08:36.194Z,23.10
2023-05-07T13:11:06.154Z,23.20
2023-05-07T13:13:36.642Z,23.20
2023-05-07T13:16:06.729Z,23.20
2023-05-07T13:18:37.161Z,23.20
2023-05-07T13:21:11.217Z,23.20
2023-05-07T13:23:42.930Z,23.30
2023-05-07T13:26:26.173Z,23.40
2023-05-07T13:28:57.286Z,23.60
2023-05-07T13:31:26.415Z,23.80
2023-05-07T13:33:57.313Z,24.10
2023-05-07T13:36:36.452Z,24.30
2023-05-07T13:39:05.293Z,24.60
2023-05-07T13:41:34.596Z,24.80
2023-05-07T13:45:18.439Z,25.00
2023-05-07T13:47:47.624Z,25.00
2023-05-07T13:50:16.358Z,24.90
2023-05-07T13:52:51.724Z,24.80
2023-05-07T13:55:20.748Z,24.50
2023-05-07T13:57:49.680Z,24.50
2023-05-07T14:00:19.058Z,24.60
2023-05-07T14:02:47.852Z,24.70
2023-05-07T14:05:16.562Z,24.70
2023-05-07T14:07:46.792Z,24.70
2023-05-07T14:10:15.708Z,24.80
2023-05-07T14:12:44.671Z,24.80
2023-05-07T14:15:16.113Z,24.80
2023-05-07T14:17:44.915Z,24.90
2023-05-07T14:20:14.640Z,25.10
2023-05-07T14:22:43.480Z,25.10
2023-05-07T14:25:14.370Z,25.10
2023-05-07T14:27:44.974Z,25.10
2023-05-07T14:30:16.236Z,25.20
2023-05-07T14:32:44.977Z,25.20
2023-05-07T14:35:14.095Z,25.20
2023-05-07T14:37:45.553Z,25.20
2023-05-07T14:40:15.906Z,25.40
2023-05-07T14:42:44.844Z,25.60
2023-05-07T14:45:14.085Z,25.90
2023-05-07T14:47:42.843Z,26.10
2023-05-07T14:50:11.895Z,26.10
2023-05-07T14:52:40.632Z,26.20
2023-05-07T14:55:36.115Z,26.30
2023-05-07T14:58:04.731Z,26.30
2023-05-07T15:00:34.591Z,26.40
2023-05-07T15:03:08.898Z,26.40
2023-05-07T15:05:38.389Z,26.60
2023-05-07T15:08:07.437Z,26.80
2023-05-07T15:10:42.320Z,27.00
2023-05-07T15:13:14.738Z,27.00
2023-05-07T15:15:45.814Z,27.00
2023-05-07T15:18:14.358Z,26.80
2023-05-07T15:20:43.354Z,26.50
2023-05-07T15:23:13.282Z,26.30
2023-05-07T15:25:44.551Z,26.10
2023-05-07T15:28:13.313Z,26.00
2023-05-07T15:30:47.057Z,25.90
2023-05-07T15:33:17.820Z,25.90
2023-05-07T15:35:46.825Z,25.70
2023-05-07T15:38:16.905Z,25.60
2023-05-07T15:40:47.081Z,25.40
2023-05-07T15:43:15.833Z,25.20
2023-05-07T15:45:45.842Z,25.00
2023-05-07T15:48:14.572Z,24.90
2023-05-07T15:50:43.382Z,24.80
2023-05-07T15:53:13.915Z,24.70
2023-05-07T15:55:44.488Z,24.70
2023-05-07T15:58:14.895Z,24.60
2023-05-07T16:00:43.494Z,24.50
2023-05-07T16:03:12.221Z,24.50
2023-05-07T16:05:41.083Z,24.50
2023-05-07T16:08:09.735Z,24.40
2023-05-07T16:10:38.406Z,24.20
2023-05-07T16:13:07.462Z,24.00
2023-05-07T16:15:37.593Z,23.80
2023-05-07T16:18:06.773Z,23.80
2023-05-07T16:20:35.851Z,23.80
2023-05-07T16:23:04.468Z,23.70
2023-05-07T16:25:33.151Z,23.60
2023-05-07T16:28:01.849Z,23.50
2023-05-07T16:30:30.433Z,23.40
2023-05-07T16:33:00.620Z,23.30
2023-05-07T16:35:29.438Z,23.20
2023-05-07T16:37:58.225Z,23.10
2023-05-07T16:40:27.215Z,23.10
2023-05-07T16:42:56.444Z,23.00
2023-05-07T16:45:25.154Z,23.00
2023-05-07T16:47:53.838Z,22.90
2023-05-07T16:50:23.846Z,22.90
2023-05-07T16:52:52.679Z,22.80
2023-05-07T16:55:22.047Z,22.60
2023-05-07T16:57:50.643Z,22.50
2023-05-07T17:00:19.713Z,22.30
2023-05-07T17:02:48.368Z,22.10
2023-05-07T17:05:17.110Z,22.00
2023-05-07T17:07:47.238Z,21.90
2023-05-07T17:10:15.970Z,21.80
2023-05-07T17:12:44.604Z,21.80
2023-05-07T17:15:14.152Z,21.70
2023-05-07T17:17:43.141Z,21.60
2023-05-07T17:20:42.801Z,21.50
2023-05-07T17:23:15.636Z,21.40
2023-05-07T17:25:45.768Z,21.30
2023-05-07T17:28:18.417Z,21.30
2023-05-07T17:30:48.236Z,21.20
2023-05-07T17:33:21.352Z,21.10
2023-05-07T17:35:51.160Z,21.00
2023-05-07T17:38:21.197Z,20.90
2023-05-07T17:40:51.798Z,20.90
2023-05-07T17:43:20.339Z,20.80
2023-05-07T17:45:49.151Z,20.70
2023-05-07T17:48:18.436Z,20.60
2023-05-07T17:50:47.182Z,20.60
2023-05-07T17:53:24.867Z,20.50
2023-05-07T17:55:54.389Z,20.40
2023-05-07T17:58:25.676Z,20.40
2023-05-07T18:00:55.607Z,20.20
2023-05-07T18:03:25.008Z,20.20
2023-05-07T18:05:53.950Z,20.10
2023-05-07T18:08:24.265Z,20.00
2023-05-07T18:10:53.196Z,20.00
2023-05-07T18:13:22.073Z,19.90
2023-05-07T18:15:50.882Z,19.80
2023-05-07T18:18:19.992Z,19.70
2023-05-07T18:20:51.104Z,19.60
2023-05-07T18:23:19.862Z,19.50
2023-05-07T18:25:49.927Z,19.50
2023-05-07T18:28:18.531Z,19.40
2023-05-07T18:30:47.119Z,19.40
2023-05-07T18:33:15.743Z,19.30
2023-05-07T18:35:44.348Z,19.20
2023-05-07T18:38:12.926Z,19.20
2023-05-07T18:40:44.248Z,19.20
2023-05-07T18:43:14.441Z,19.00
2023-05-07T18:45:43.168Z,18.90
2023-05-07T18:48:11.991Z,18.90
2023-05-07T18:50:43.940Z,18.80
2023-05-07T18:53:12.609Z,18.70
2023-05-07T18:55:41.435Z,18.70
2023-05-07T18:58:10.808Z,18.60
2023-05-07T19:00:40.805Z,18.50
2023-05-07T19:03:09.459Z,18.50
2023-05-07T19:05:37.888Z,18.40
2023-05-07T19:08:06.766Z,18.30
2023-05-07T19:10:35.479Z,18.30
2023-05-07T19:13:04.218Z,18.20
2023-05-07T19:15:32.676Z,18.10
2023-05-07T19:18:02.838Z,18.10
2023-05-07T19:20:31.845Z,18.00
2023-05-07T19:23:00.667Z,18.00
2023-05-07T19:25:29.392Z,17.90
2023-05-07T19:27:58.506Z,17.90
2023-05-07T19:30:27.616Z,17.80
2023-05-07T19:32:56.438Z,17.80
2023-05-07T19:35:26.719Z,17.70
2023-05-07T19:37:55.574Z,17.70
2023-05-07T19:40:24.205Z,17.60
2023-05-07T19:42:52.880Z,17.60
2023-05-07T19:45:21.628Z,17.60
2023-05-07T19:47:51.215Z,17.50
2023-05-07T19:50:20.158Z,17.40
2023-05-07T19:52:53.053Z,17.40
2023-05-07T19:55:22.256Z,17.30
2023-05-07T19:57:51.082Z,17.30
2023-05-07T20:00:21.361Z,17.20
2023-05-07T20:02:51.405Z,17.10
2023-05-07T20:05:21.412Z,17.10
2023-05-07T20:07:50.112Z,17.00
2023-05-07T20:10:20.742Z,16.90
2023-05-07T20:12:49.717Z,16.90
2023-05-07T20:15:19.747Z,16.80
2023-05-07T20:17:48.468Z,16.70
2023-05-07T20:20:17.341Z,16.60
2023-05-07T20:22:45.960Z,16.50
2023-05-07T20:25:15.164Z,16.50
2023-05-07T20:27:45.393Z,16.50
2023-05-07T20:30:15.240Z,16.50
2023-05-07T20:32:44.140Z,16.50
2023-05-07T20:35:12.910Z,16.40
2023-05-07T20:37:42.190Z,16.40
2023-05-07T20:40:12.383Z,16.30
2023-05-07T20:42:42.683Z,16.20
2023-05-07T20:45:13.732Z,16.20
2023-05-07T20:47:42.747Z,16.10
2023-05-07T20:50:12.191Z,16.00
2023-05-07T20:52:41.069Z,15.90
2023-05-07T20:55:10.722Z,15.90
2023-05-07T20:57:39.369Z,15.80
2023-05-07T21:00:09.525Z,15.80
2023-05-07T21:02:39.780Z,15.70
2023-05-07T21:05:09.257Z,15.60
2023-05-07T21:07:37.983Z,15.60
2023-05-07T21:10:07.624Z,15.50
2023-05-07T21:12:36.457Z,15.50
2023-05-07T21:15:05.632Z,15.40
2023-05-07T21:17:35.417Z,15.30
2023-05-07T21:20:06.228Z,15.30
2023-05-07T21:22:35.158Z,15.20
2023-05-07T21:25:03.986Z,15.20
2023-05-07T21:27:32.634Z,15.10
2023-05-07T21:30:04.998Z,15.10
2023-05-07T21:32:33.947Z,15.00
2023-05-07T21:35:02.681Z,15.00
2023-05-07T21:37:32.889Z,15.00
2023-05-07T21:40:01.796Z,15.00
2023-05-07T21:42:30.962Z,15.00
2023-05-07T21:44:59.746Z,15.00
2023-05-07T21:47:28.548Z,15.00
2023-05-07T21:49:57.707Z,15.00
2023-05-07T21:52:26.772Z,15.00
2023-05-07T21:54:56.933Z,14.90
2023-05-07T21:57:25.675Z,14.90
2023-05-07T21:59:54.340Z,14.90
2023-05-07T22:02:23.119Z,14.90
2023-05-07T22:04:51.891Z,14.90
2023-05-07T22:07:20.849Z,14.90
2023-05-07T22:09:49.628Z,14.90
2023-05-07T22:12:19.950Z,14.90
2023-05-07T22:14:48.895Z,14.90
2023-05-07T22:17:17.534Z,14.90
2023-05-07T22:19:46.298Z,14.80
2023-05-07T22:22:15.052Z,14.80
2023-05-07T22:24:43.959Z,14.80
2023-05-07T22:27:12.770Z,14.80
2023-05-07T22:29:42.898Z,14.70
2023-05-07T22:32:12.899Z,14.70
2023-05-07T22:34:41.688Z,14.60
2023-05-07T22:37:10.338Z,14.60
2023-05-07T22:39:39.063Z,14.50
2023-05-07T22:42:07.784Z,14.40
2023-05-07T22:44:36.589Z,14.40
2023-05-07T22:47:06.886Z,14.40
2023-05-07T22:49:36.198Z,14.20
2023-05-07T22:52:05.303Z,14.20
2023-05-07T22:54:34.010Z,14.20
2023-05-07T22:57:03.494Z,14.10
2023-05-07T22:59:32.100Z,14.10
2023-05-07T23:02:01.019Z,14.00
2023-05-07T23:04:31.181Z,13.90
2023-05-07T23:06:59.930Z,13.90
2023-05-07T23:09:28.626Z,13.90
2023-05-07T23:11:57.281Z,13.90
2023-05-07T23:14:26.074Z,13.80
2023-05-07T23:16:54.850Z,13.80
2023-05-07T23:19:23.928Z,13.80
2023-05-07T23:21:54.411Z,13.70
2023-05-07T23:24:23.084Z,13.70
2023-05-07T23:26:51.963Z,13.70
2023-05-07T23:29:20.556Z,13.60
2023-05-07T23:31:49.184Z,13.60
2023-05-07T23:34:24.100Z,13.60
2023-05-07T23:36:55.108Z,13.50
2023-05-07T23:39:23.866Z,13.50
2023-05-07T23:41:52.660Z,13.40
2023-05-07T23:44:21.416Z,13.40
2023-05-07T23:46:50.527Z,13.40
2023-05-07T23:49:19.549Z,13.30
2023-05-07T23:51:48.314Z,13.30
2023-05-07T23:54:18.514Z,13.30
2023-05-07T23:56:47.392Z,13.30
2023-05-07T23:59:16.082Z,13.30
